KMLJ

Baldwin County Airport

Milledgeville, Georgia, USA
METAR KMLJ 210355Z AUTO 00000KT 7SM BKN013 23/23 A3008 RMK AO2
Observed Flight Rules
Aug-21 @ 03:55 UTC (14 minutes ago) Marginal Visual Flight Rules
Visibility Clouds
7 miles
  • Broken at 1,300' AGL
Temperatures Readings
Current 23°C / 73°F
Dewpoint 23°C / 73°F
Humidity 100%
Altimeter 30.08" Hg
Pressure 1019 hPa
Elevation 117
METAR KMLJ 210355Z AUTO 00000KT 7SM BKN013 23/23 A3008 RMK AO2
Observed Flight Rules
Aug-21 @ 03:55 UTC
(14 minutes ago)
MVFR
Clouds
  • Broken at 1,300' AGL
Temperature Dewpoint
23°C / 73°F 23°C / 73°F
Humidity Altimeter Pressure
100% 30.08" Hg 1019 hPa